Time;durP1;ratioP1;P1;durP2;ratioP2;P2;SDS_P1;SDS_P2;PMS_P1;PMS_P2;Temp;Humidity;BMP_temperature;BMP_pressure;BME280_temperature;BME280_humidity;BME280_pressure;Samples;Min_cycle;Max_cycle;Signal;HPM_P1;HPM_P2
2023/01/06 00:01:21;;;;;;;206.20;38.92;;;;;;;5.30;100.00;101269.91;5002972;28;20034;-89
2023/01/06 00:03:51;;;;;;;146.10;37.10;;;;;;;5.14;100.00;101267.50;5000140;28;20034;-89
2023/01/06 00:06:18;;;;;;;246.73;41.90;;;;;;;4.90;100.00;101269.28;4984139;28;20380;-89
2023/01/06 00:08:44;;;;;;;96.13;38.50;;;;;;;4.97;100.00;101274.94;5002721;28;20039;-89
2023/01/06 00:11:12;;;;;;;193.15;44.35;;;;;;;5.11;100.00;101278.25;5000900;28;20126;-90
2023/01/06 00:13:38;;;;;;;319.60;46.95;;;;;;;5.04;100.00;101277.00;5005244;28;20046;-87
2023/01/06 00:16:10;;;;;;;189.50;41.28;;;;;;;5.05;100.00;101272.59;5012602;28;20492;-88
2023/01/06 00:18:40;;;;;;;243.07;42.03;;;;;;;4.96;100.00;101278.50;5004954;28;20484;-92
2023/01/06 00:21:08;;;;;;;221.45;41.83;;;;;;;4.92;100.00;101277.03;4999549;28;20503;-88
2023/01/06 00:23:35;;;;;;;269.80;42.58;;;;;;;4.96;100.00;101276.72;4998609;28;20125;-89
2023/01/06 00:26:04;;;;;;;198.95;40.95;;;;;;;5.02;100.00;101278.91;5002184;28;20034;-86
2023/01/06 00:28:33;;;;;;;222.95;39.20;;;;;;;5.01;100.00;101276.38;4999629;28;20069;-88
2023/01/06 00:31:08;;;;;;;132.18;39.72;;;;;;;5.06;100.00;101274.28;5000404;28;20033;-87
2023/01/06 00:33:34;;;;;;;269.50;41.67;;;;;;;5.15;100.00;101289.38;4999387;28;20468;-87
2023/01/06 00:36:00;;;;;;;259.95;41.60;;;;;;;5.08;100.00;101288.13;4998801;28;20040;-87
2023/01/06 00:38:26;;;;;;;176.90;38.45;;;;;;;5.03;100.00;101290.25;4999126;28;20122;-91
2023/01/06 00:40:52;;;;;;;169.48;37.25;;;;;;;5.04;100.00;101286.66;4997884;28;20046;-89
2023/01/06 00:43:18;;;;;;;117.80;38.92;;;;;;;5.17;100.00;101282.25;4998132;28;20030;-89
2023/01/06 00:45:43;;;;;;;192.43;36.28;;;;;;;5.20;100.00;101287.28;4998746;28;20041;-88
2023/01/06 00:48:09;;;;;;;141.15;38.55;;;;;;;5.05;100.00;101288.34;4999396;28;20064;-88
2023/01/06 00:50:34;;;;;;;197.38;36.97;;;;;;;4.85;100.00;101276.63;4997219;28;20122;-88
2023/01/06 00:53:00;;;;;;;233.88;36.22;;;;;;;4.75;100.00;101279.97;4998318;28;20038;-89
2023/01/06 00:55:26;;;;;;;152.80;34.70;;;;;;;4.78;100.00;101280.63;4999119;28;20034;-87
2023/01/06 00:57:52;;;;;;;125.55;36.00;;;;;;;5.00;100.00;101277.34;4998418;28;20041;-89
2023/01/06 01:00:19;;;;;;;94.25;33.85;;;;;;;4.83;100.00;101282.94;4999191;28;20038;-90
2023/01/06 01:02:47;;;;;;;65.50;31.75;;;;;;;4.97;100.00;101281.00;4997881;28;20065;-89
2023/01/06 01:05:13;;;;;;;96.20;33.47;;;;;;;5.02;100.00;101288.56;4997579;28;20548;-89
2023/01/06 01:07:39;;;;;;;92.93;30.08;;;;;;;4.90;100.00;101276.31;4999462;28;20548;-90
2023/01/06 01:10:09;;;;;;;152.80;29.05;;;;;;;4.83;100.00;101277.69;4997727;28;20050;-88
2023/01/06 01:12:37;;;;;;;107.45;27.17;;;;;;;4.86;100.00;101282.72;4998536;28;20037;-89
2023/01/06 01:15:04;;;;;;;114.35;26.27;;;;;;;4.67;100.00;101283.16;4983257;28;20034;-88
2023/01/06 01:17:31;;;;;;;138.70;28.20;;;;;;;4.44;100.00;101286.53;5001806;28;20058;-90
2023/01/06 01:19:58;;;;;;;111.72;27.80;;;;;;;4.48;100.00;101294.06;4992689;28;20042;-91
2023/01/06 01:22:28;;;;;;;209.48;29.70;;;;;;;4.50;100.00;101281.69;5012383;28;20053;-90
2023/01/06 01:24:54;;;;;;;208.63;28.40;;;;;;;4.37;100.00;101290.50;5005063;28;20121;-88
2023/01/06 01:27:22;;;;;;;146.20;25.90;;;;;;;4.59;100.00;101291.56;4999826;28;20062;-89
2023/01/06 01:29:48;;;;;;;79.07;24.65;;;;;;;4.50;100.00;101286.94;4999202;28;20105;-90
2023/01/06 01:32:13;;;;;;;67.00;22.52;;;;;;;4.44;100.00;101289.97;4981558;28;20069;-89
2023/01/06 01:34:39;;;;;;;115.95;21.73;;;;;;;4.51;100.00;101295.63;4999035;28;20073;-91
2023/01/06 01:37:06;;;;;;;168.68;21.55;;;;;;;4.24;100.00;101290.50;4997468;28;20061;-91
2023/01/06 01:39:32;;;;;;;76.57;20.88;;;;;;;4.24;100.00;101289.66;4998178;28;20104;-92
2023/01/06 01:41:58;;;;;;;114.25;20.80;;;;;;;4.40;100.00;101290.28;4999228;28;20038;-89
2023/01/06 01:45:00;;;;;;;203.35;20.25;;;;;;;4.43;100.00;101296.16;4997841;28;20041;-90
2023/01/06 01:47:41;;;;;;;47.03;18.20;;;;;;;4.46;100.00;101292.50;4997721;28;20097;-88
2023/01/06 01:50:06;;;;;;;134.82;21.58;;;;;;;4.36;100.00;101287.03;5012738;28;20034;-89
2023/01/06 01:52:33;;;;;;;92.45;19.48;;;;;;;4.36;100.00;101284.41;4997495;28;20163;-88
2023/01/06 01:55:00;;;;;;;52.60;18.00;;;;;;;4.33;100.00;101284.63;4996584;28;20093;-88
2023/01/06 01:57:37;;;;;;;56.35;18.63;;;;;;;4.22;100.00;101287.09;4997336;28;20026;-89
2023/01/06 02:00:06;;;;;;;37.53;18.30;;;;;;;4.27;100.00;101295.53;4998396;28;20031;-91
2023/01/06 02:02:39;;;;;;;91.32;20.50;;;;;;;4.38;100.00;101285.13;4998782;28;20445;-90
2023/01/06 02:05:10;;;;;;;108.85;20.98;;;;;;;4.24;100.00;101293.13;4998894;28;20108;-89
2023/01/06 02:07:37;;;;;;;41.80;19.80;;;;;;;4.35;100.00;101282.72;4996833;28;20034;-88
2023/01/06 02:10:05;;;;;;;45.10;21.58;;;;;;;4.41;100.00;101282.28;4979929;28;20033;-89
2023/01/06 02:12:31;;;;;;;63.80;20.10;;;;;;;4.43;100.00;101275.19;4996068;28;20046;-88
2023/01/06 02:14:57;;;;;;;58.05;19.63;;;;;;;4.41;100.00;101270.97;4997473;28;20038;-90
2023/01/06 02:17:57;;;;;;;37.42;19.48;;;;;;;4.47;100.00;101276.66;4996553;28;20038;-90
2023/01/06 02:20:46;;;;;;;37.72;20.35;;;;;;;4.45;100.00;101268.03;4999577;28;20081;-90
2023/01/06 02:23:39;;;;;;;37.45;20.92;;;;;;;4.53;100.00;101268.34;4997265;28;20050;-90
2023/01/06 02:26:38;;;;;;;39.05;19.25;;;;;;;4.65;100.00;101269.28;4997867;28;20054;-88
2023/01/06 02:29:27;;;;;;;52.50;20.48;;;;;;;4.39;100.00;101278.94;4996794;28;20448;-90
2023/01/06 02:32:19;;;;;;;38.90;20.00;;;;;;;4.50;100.00;101276.44;4996969;28;20084;-89
2023/01/06 02:35:16;;;;;;;60.20;20.00;;;;;;;4.54;100.00;101272.63;4997550;28;20058;-89
2023/01/06 02:37:47;;;;;;;53.40;20.98;;;;;;;4.52;100.00;101279.78;5009063;28;20045;-88
2023/01/06 02:40:17;;;;;;;;;;;;;;;4.70;100.00;101277.69;5008437;28;20038;-91
2023/01/06 02:43:10;;;;;;;54.42;20.15;;;;;;;4.47;100.00;101276.66;4980691;28;19917;-90
2023/01/06 02:46:01;;;;;;;110.32;24.08;;;;;;;4.39;100.00;101284.19;4998575;28;20030;-89
2023/01/06 02:48:40;;;;;;;79.60;25.88;;;;;;;4.46;100.00;101280.22;4996903;28;20034;-89
2023/01/06 02:51:16;;;;;;;87.68;26.67;;;;;;;4.43;100.00;101283.06;4996309;28;20548;-89
2023/01/06 02:53:50;;;;;;;77.93;26.80;;;;;;;4.58;100.00;101278.53;4996327;28;20039;-89
2023/01/06 02:56:40;;;;;;;158.68;29.95;;;;;;;4.47;100.00;101281.91;4980185;28;20080;-88
2023/01/06 02:59:21;;;;;;;145.25;28.73;;;;;;;4.42;100.00;101273.47;4995859;28;20038;-90
2023/01/06 03:01:51;;;;;;;81.75;27.90;;;;;;;4.44;100.00;101262.91;4998390;28;20102;-91
2023/01/06 03:04:25;;;;;;;65.25;29.55;;;;;;;4.50;100.00;101263.31;5008217;28;20035;-88
2023/01/06 03:06:54;;;;;;;68.95;29.02;;;;;;;4.53;100.00;101259.63;5008692;28;20038;-88
2023/01/06 03:09:26;;;;;;;73.38;27.40;;;;;;;4.80;100.00;101268.22;4994985;28;20058;-89
2023/01/06 03:11:52;;;;;;;;;;;;;;;4.85;100.00;101260.00;4993691;28;20038;-88
2023/01/06 03:14:34;;;;;;;54.10;25.55;;;;;;;4.90;100.00;101271.06;4977314;28;19924;-89
2023/01/06 03:17:00;;;;;;;84.43;28.50;;;;;;;4.80;100.00;101267.38;4994788;28;20030;-91
2023/01/06 03:19:30;;;;;;;73.80;26.75;;;;;;;4.82;100.00;101268.09;4994245;28;20030;-88
2023/01/06 03:21:58;;;;;;;93.18;27.30;;;;;;;4.81;100.00;101263.78;4977304;28;20061;-88
2023/01/06 03:24:24;;;;;;;118.18;28.40;;;;;;;4.88;100.00;101265.06;4994030;28;20069;-91
2023/01/06 03:26:54;;;;;;;98.28;28.10;;;;;;;4.97;100.00;101262.59;4978880;28;20413;-90
2023/01/06 03:29:22;;;;;;;75.20;27.42;;;;;;;5.04;100.00;101268.28;4994429;28;20045;-90
2023/01/06 03:32:19;;;;;;;143.50;29.45;;;;;;;4.95;100.00;101271.56;4996665;28;20069;-88
2023/01/06 03:35:26;;;;;;;111.97;30.25;;;;;;;4.91;100.00;101265.69;4994973;28;20069;-89
2023/01/06 03:38:03;;;;;;;114.03;30.27;;;;;;;4.86;100.00;101266.97;4996447;28;20489;-90
2023/01/06 03:40:42;;;;;;;104.93;29.73;;;;;;;4.84;100.00;101268.88;4995007;28;20405;-89
2023/01/06 03:43:15;;;;;;;95.20;31.92;;;;;;;4.90;100.00;101276.31;4995137;28;20096;-90
2023/01/06 03:45:51;;;;;;;73.00;30.33;;;;;;;4.97;100.00;101272.31;4996112;28;20034;-92
2023/01/06 03:48:46;;;;;;;122.38;31.60;;;;;;;5.00;100.00;101272.09;4995856;28;20473;-91
2023/01/06 03:51:38;;;;;;;84.80;31.67;;;;;;;4.99;100.00;101268.63;4995917;28;20042;-92
2023/01/06 03:54:24;;;;;;;116.75;32.55;;;;;;;4.88;100.00;101270.31;4994840;28;20066;-91
2023/01/06 03:57:04;;;;;;;90.45;31.48;;;;;;;5.00;100.00;101269.47;4997260;28;20038;-89
2023/01/06 03:59:36;;;;;;;139.13;33.53;;;;;;;4.97;100.00;101265.25;4979247;28;20038;-90
2023/01/06 04:02:07;;;;;;;101.87;32.57;;;;;;;4.92;100.00;101261.28;4995904;28;20101;-91
2023/01/06 04:04:33;;;;;;;115.35;32.75;;;;;;;4.89;100.00;101261.47;4977109;28;20098;-91
2023/01/06 04:06:58;;;;;;;84.55;31.73;;;;;;;4.98;100.00;101266.09;4995873;28;20464;-90
2023/01/06 04:09:25;;;;;;;125.40;32.55;;;;;;;5.00;100.00;101258.94;4995252;28;20069;-91
2023/01/06 04:14:37;;;;;;;133.35;32.00;;;;;;;5.05;100.00;101259.44;4996869;28;20058;-90
2023/01/06 04:17:03;;;;;;;94.93;33.63;;;;;;;4.99;100.00;101254.63;5011218;28;20046;-87
2023/01/06 04:19:28;;;;;;;67.57;32.35;;;;;;;5.04;100.00;101265.66;5011818;28;20041;-86
2023/01/06 04:21:54;;;;;;;77.78;33.60;;;;;;;5.11;100.00;101256.38;5010941;28;20041;-87
2023/01/06 04:24:20;;;;;;;80.72;34.95;;;;;;;5.18;100.00;101260.25;5007779;28;20042;-88
2023/01/06 04:26:45;;;;;;;79.75;35.88;;;;;;;5.15;100.00;101255.22;4991728;28;20030;-89
2023/01/06 04:29:11;;;;;;;81.35;36.00;;;;;;;5.29;100.00;101256.88;4999645;28;20122;-89
2023/01/06 04:31:37;;;;;;;76.55;33.88;;;;;;;5.25;100.00;101253.63;4999429;28;20113;-88
2023/01/06 04:34:02;;;;;;;65.90;33.05;;;;;;;5.22;100.00;101248.59;4999861;28;20030;-90
2023/01/06 04:36:30;;;;;;;74.32;32.83;;;;;;;5.20;100.00;101250.50;5001842;28;20156;-90
2023/01/06 04:38:55;;;;;;;64.55;30.27;;;;;;;5.18;100.00;101260.25;5000813;28;20038;-88
2023/01/06 04:41:24;;;;;;;54.45;27.20;;;;;;;5.11;100.00;101256.38;5002066;28;20491;-89
2023/01/06 04:43:50;;;;;;;43.35;23.85;;;;;;;5.14;100.00;101258.78;5003847;28;20030;-85
2023/01/06 04:46:18;;;;;;;39.72;21.45;;;;;;;5.12;100.00;101263.31;5017801;28;20022;-89
2023/01/06 04:48:44;;;;;;;41.25;22.23;;;;;;;5.16;100.00;101265.63;5018699;28;20050;-87
2023/01/06 04:51:10;;;;;;;41.03;21.60;;;;;;;5.17;100.00;101266.47;5019528;28;20026;-88
2023/01/06 04:53:38;;;;;;;37.60;19.00;;;;;;;5.13;100.00;101268.50;5017423;28;20030;-85
2023/01/06 04:56:09;;;;;;;32.38;18.75;;;;;;;5.19;100.00;101269.81;5019694;28;20101;-88
2023/01/06 04:58:35;;;;;;;27.98;17.05;;;;;;;5.15;100.00;101269.22;5019681;28;20456;-89
2023/01/06 05:01:03;;;;;;;25.80;16.73;;;;;;;5.19;100.00;101268.03;5019169;28;20042;-87
2023/01/06 05:03:29;;;;;;;29.05;15.07;;;;;;;5.24;100.00;101278.22;5018836;28;20057;-87
2023/01/06 05:05:55;;;;;;;27.80;15.23;;;;;;;5.39;100.00;101266.63;5019435;28;20191;-88
2023/01/06 05:08:20;;;;;;;25.05;14.82;;;;;;;5.55;100.00;101277.69;5018857;28;20026;-88
2023/01/06 05:10:46;;;;;;;26.23;14.77;;;;;;;5.65;100.00;101273.44;5019089;28;20053;-86
2023/01/06 05:13:11;;;;;;;26.27;15.00;;;;;;;5.67;100.00;101271.53;5018959;28;20022;-84
2023/01/06 05:15:38;;;;;;;28.08;15.13;;;;;;;5.54;100.00;101270.75;5019216;28;20061;-89
2023/01/06 05:18:03;;;;;;;24.20;14.50;;;;;;;5.46;100.00;101259.97;5019607;28;20065;-86
2023/01/06 05:20:29;;;;;;;25.05;14.77;;;;;;;5.51;100.00;101270.97;5019139;28;20034;-87
2023/01/06 05:22:54;;;;;;;26.77;14.45;;;;;;;5.65;100.00;101270.81;5002190;28;20058;-87
2023/01/06 05:25:20;;;;;;;26.75;13.98;;;;;;;5.70;100.00;101279.19;5017374;28;20046;-90
2023/01/06 05:27:45;;;;;;;26.83;13.35;;;;;;;5.59;100.00;101284.41;5018973;28;20022;-88
2023/01/06 05:30:11;;;;;;;26.20;14.15;;;;;;;5.79;100.00;101290.00;5018469;28;20081;-87
2023/01/06 05:32:37;;;;;;;25.83;15.27;;;;;;;5.71;100.00;101299.28;5018906;28;20034;-87
2023/01/06 05:35:03;;;;;;;25.55;15.65;;;;;;;5.59;100.00;101294.94;5018773;28;20086;-89
2023/01/06 05:37:28;;;;;;;25.17;14.73;;;;;;;5.80;100.00;101299.56;5018348;28;20061;-85
2023/01/06 05:39:53;;;;;;;24.25;14.18;;;;;;;5.82;100.00;101295.03;5014985;28;20042;-88
2023/01/06 05:42:19;;;;;;;27.98;15.43;;;;;;;5.78;100.00;101301.47;4999527;28;20038;-89
2023/01/06 05:44:45;;;;;;;28.88;16.60;;;;;;;5.82;100.00;101305.56;4997638;28;20038;-87
2023/01/06 05:47:10;;;;;;;31.23;16.67;;;;;;;5.95;100.00;101306.34;4980672;28;20034;-90
2023/01/06 05:49:36;;;;;;;36.75;17.83;;;;;;;6.01;100.00;101305.91;4998447;28;20042;-89
2023/01/06 05:52:04;;;;;;;34.80;17.90;;;;;;;6.02;100.00;101313.69;4999234;28;20489;-86
2023/01/06 05:54:30;;;;;;;38.13;19.00;;;;;;;5.96;100.00;101313.31;5000977;28;20038;-88
2023/01/06 05:56:55;;;;;;;35.78;19.25;;;;;;;6.20;100.00;101327.25;5001820;28;20048;-88
2023/01/06 05:59:21;;;;;;;33.30;18.48;;;;;;;6.08;100.00;101322.91;4998029;28;20311;-90
2023/01/06 06:01:47;;;;;;;38.78;18.58;;;;;;;6.11;100.00;101327.94;4996504;28;20366;-88
2023/01/06 06:04:12;;;;;;;36.22;18.83;;;;;;;6.04;100.00;101329.34;4995517;28;20022;-87
2023/01/06 06:06:38;;;;;;;38.33;19.98;;;;;;;5.84;100.00;101330.78;4997692;28;20117;-86
2023/01/06 06:09:04;;;;;;;39.25;19.88;;;;;;;5.81;100.00;101335.44;4997582;28;20038;-88
2023/01/06 06:11:30;;;;;;;38.78;19.80;;;;;;;5.79;100.00;101337.34;4980271;28;20458;-86
2023/01/06 06:13:56;;;;;;;38.67;19.92;;;;;;;5.88;100.00;101340.16;4996976;28;20034;-88
2023/01/06 06:16:25;;;;;;;37.17;20.02;;;;;;;5.88;100.00;101342.81;4997603;28;20066;-89
2023/01/06 06:18:55;;;;;;;37.63;18.88;;;;;;;5.99;100.00;101339.41;4996949;28;20030;-86
2023/01/06 06:21:29;;;;;;;38.97;17.98;;;;;;;6.07;100.00;101340.50;4987802;28;20046;-85
2023/01/06 06:23:56;;;;;;;30.95;16.63;;;;;;;6.22;100.00;101342.00;4998570;28;20493;-91
2023/01/06 06:26:23;;;;;;;28.27;16.02;;;;;;;6.47;100.00;101353.31;4995410;28;20517;-89
2023/01/06 06:28:48;;;;;;;33.83;15.45;;;;;;;6.33;100.00;101356.97;4996817;28;20030;-89
2023/01/06 06:31:17;;;;;;;32.00;15.65;;;;;;;6.49;100.00;101360.16;4997274;28;20042;-92
2023/01/06 06:33:43;;;;;;;32.97;17.60;;;;;;;6.34;100.00;101358.66;4997264;28;20035;-90
2023/01/06 06:36:14;;;;;;;36.72;21.35;;;;;;;6.21;100.00;101350.84;4996974;28;20116;-92
2023/01/06 06:38:44;;;;;;;49.83;23.98;;;;;;;6.08;100.00;101354.50;4978895;28;20104;-90
2023/01/06 06:41:11;;;;;;;53.35;25.42;;;;;;;6.11;100.00;101357.75;4995795;28;20066;-90
2023/01/06 06:43:37;;;;;;;54.78;26.42;;;;;;;6.20;100.00;101366.75;4995863;28;20026;-88
2023/01/06 06:46:06;;;;;;;50.10;25.02;;;;;;;6.37;100.00;101368.97;4998380;28;20027;-90
2023/01/06 06:48:32;;;;;;;52.47;25.42;;;;;;;6.49;100.00;101370.69;4996689;28;20108;-88
2023/01/06 06:51:06;;;;;;;51.45;25.83;;;;;;;6.50;100.00;101380.25;4996401;28;20492;-88
2023/01/06 06:53:33;;;;;;;51.05;25.67;;;;;;;6.47;100.00;101388.38;4998895;28;20031;-89
2023/01/06 06:55:59;;;;;;;53.90;24.60;;;;;;;6.50;100.00;101393.41;4999608;28;20070;-92
2023/01/06 06:58:27;;;;;;;58.35;27.25;;;;;;;6.54;100.00;101394.88;5000895;28;20370;-83
2023/01/06 07:00:54;;;;;;;55.65;26.10;;;;;;;6.54;100.00;101400.16;5007385;28;20026;-89
2023/01/06 07:03:21;;;;;;;59.42;28.20;;;;;;;6.52;100.00;101401.22;5004602;28;20038;-84
2023/01/06 07:05:49;;;;;;;62.05;27.98;;;;;;;6.39;100.00;101401.31;4996854;28;20092;-89
2023/01/06 07:08:15;;;;;;;67.55;29.13;;;;;;;6.22;100.00;101399.91;4996219;28;20030;-90
2023/01/06 07:10:40;;;;;;;66.45;31.40;;;;;;;6.18;100.00;101408.97;4997258;28;20085;-82
2023/01/06 07:13:06;;;;;;;67.90;32.13;;;;;;;6.16;100.00;101410.06;4995258;28;20042;-88
2023/01/06 07:15:32;;;;;;;68.15;31.08;;;;;;;6.28;100.00;101408.28;4994524;28;20049;-84
2023/01/06 07:18:01;;;;;;;70.25;31.70;;;;;;;6.37;100.00;101408.44;4993190;28;20121;-79
2023/01/06 07:20:32;;;;;;;74.05;32.45;;;;;;;6.51;100.00;101407.44;4992560;28;20124;-80
2023/01/06 07:22:57;;;;;;;62.85;29.15;;;;;;;6.66;100.00;101409.75;5000894;28;20034;-80
2023/01/06 07:25:23;;;;;;;45.92;21.80;;;;;;;6.42;100.00;101422.13;4996620;28;20045;-79
2023/01/06 07:27:53;;;;;;;41.78;19.98;;;;;;;6.47;100.00;101413.88;4995649;28;20031;-79
2023/01/06 07:30:19;;;;;;;35.53;19.77;;;;;;;6.40;100.00;101418.75;5003110;28;20039;-81
2023/01/06 07:32:44;;;;;;;34.22;17.42;;;;;;;6.21;100.00;101423.69;5006439;28;20098;-82
2023/01/06 07:35:10;;;;;;;32.30;17.25;;;;;;;6.11;100.00;101430.59;5007595;28;20030;-81
2023/01/06 07:37:35;;;;;;;27.20;15.23;;;;;;;6.18;100.00;101429.19;5003563;28;20094;-83
2023/01/06 07:40:00;;;;;;;27.83;15.57;;;;;;;6.43;100.00;101428.25;5002470;28;20385;-85
2023/01/06 07:42:26;;;;;;;33.00;16.00;;;;;;;6.32;100.00;101431.66;4994964;28;20065;-81
2023/01/06 07:44:51;;;;;;;33.90;16.15;;;;;;;6.24;100.00;101436.63;4994218;28;20038;-85
2023/01/06 07:47:17;;;;;;;33.25;16.65;;;;;;;6.20;100.00;101433.38;4993951;28;20062;-83
2023/01/06 07:49:42;;;;;;;35.97;16.20;;;;;;;6.35;100.00;101434.06;4997851;28;20042;-83
2023/01/06 07:52:08;;;;;;;32.05;16.23;;;;;;;6.42;100.00;101443.19;4997506;28;20030;-88
2023/01/06 07:54:33;;;;;;;38.38;16.90;;;;;;;6.33;100.00;101451.75;5001229;28;20042;-87
2023/01/06 07:56:59;;;;;;;36.95;16.85;;;;;;;6.31;100.00;101451.03;4999022;28;20034;-81
2023/01/06 07:59:25;;;;;;;37.45;17.67;;;;;;;6.53;100.00;101451.13;4999817;28;20035;-88
2023/01/06 08:01:50;;;;;;;35.03;16.25;;;;;;;6.54;100.00;101447.53;4999908;28;20093;-87
2023/01/06 08:04:16;;;;;;;43.97;18.63;;;;;;;6.52;100.00;101454.75;5002428;28;20026;-90
2023/01/06 08:06:44;;;;;;;37.95;19.65;;;;;;;6.47;100.00;101454.22;5006393;28;20034;-89
2023/01/06 08:09:10;;;;;;;43.35;20.40;;;;;;;6.36;100.00;101448.91;5003628;28;20504;-87
2023/01/06 08:11:35;;;;;;;50.88;20.38;;;;;;;6.48;100.00;101455.91;4997780;28;20038;-87
2023/01/06 08:14:01;;;;;;;52.92;20.98;;;;;;;6.51;100.00;101458.31;4996718;28;20038;-89
2023/01/06 08:16:26;;;;;;;45.78;20.25;;;;;;;6.53;100.00;101460.84;5000244;28;20045;-90
2023/01/06 08:18:52;;;;;;;43.10;20.38;;;;;;;6.47;100.00;101467.38;5001556;28;20034;-88
2023/01/06 08:21:20;;;;;;;53.22;20.50;;;;;;;6.48;100.00;101469.06;4999689;28;20030;-89
2023/01/06 08:23:49;;;;;;;58.15;20.33;;;;;;;6.61;100.00;101469.84;5005459;28;20034;-89
2023/01/06 08:26:16;;;;;;;46.17;20.98;;;;;;;6.49;100.00;101480.44;5004957;28;20077;-90
2023/01/06 08:28:44;;;;;;;61.47;20.58;;;;;;;6.47;100.00;101477.06;5002273;28;20102;-87
2023/01/06 08:31:11;;;;;;;48.38;21.98;;;;;;;6.36;100.00;101480.50;4999989;28;20038;-86
2023/01/06 08:33:37;;;;;;;48.25;21.85;;;;;;;6.63;100.00;101486.38;4997392;28;20461;-91
2023/01/06 08:36:05;;;;;;;52.90;21.50;;;;;;;6.55;100.00;101491.38;4998447;28;20030;-90
2023/01/06 08:38:33;;;;;;;53.42;21.67;;;;;;;6.62;100.00;101491.75;4998724;28;20035;-84
2023/01/06 08:40:59;;;;;;;53.60;22.80;;;;;;;6.66;100.00;101496.66;5002140;28;20056;-83
2023/01/06 08:43:25;;;;;;;54.60;23.20;;;;;;;6.61;100.00;101493.56;5002107;28;20034;-90
2023/01/06 08:45:57;;;;;;;51.33;23.45;;;;;;;6.70;100.00;101490.22;4999808;28;20037;-84
2023/01/06 08:48:23;;;;;;;70.20;25.20;;;;;;;6.66;100.00;101499.31;4996803;28;20121;-86
2023/01/06 08:50:48;;;;;;;61.92;24.60;;;;;;;6.56;100.00;101500.94;4997283;28;20065;-86
2023/01/06 08:53:14;;;;;;;69.40;25.77;;;;;;;6.74;100.00;101496.13;4999120;28;20119;-86
2023/01/06 08:55:41;;;;;;;67.47;28.95;;;;;;;6.70;100.00;101492.88;4998676;28;20124;-89
2023/01/06 08:58:08;;;;;;;84.85;29.90;;;;;;;6.78;100.00;101499.38;5001223;28;20050;-88
2023/01/06 09:00:34;;;;;;;71.43;29.02;;;;;;;6.98;100.00;101506.63;5001805;28;20041;-87
2023/01/06 09:02:59;;;;;;;72.57;29.50;;;;;;;7.06;100.00;101512.19;5007287;28;20096;-86
2023/01/06 09:05:25;;;;;;;71.60;30.60;;;;;;;7.13;100.00;101505.47;5005502;28;20126;-88
2023/01/06 09:07:51;;;;;;;75.18;29.27;;;;;;;7.15;100.00;101506.19;5008521;28;20030;-88
2023/01/06 09:10:18;;;;;;;83.45;31.15;;;;;;;7.21;100.00;101516.28;5004593;28;20038;-87
2023/01/06 09:12:44;;;;;;;82.32;30.77;;;;;;;7.05;100.00;101513.97;5002249;28;20040;-87
2023/01/06 09:15:10;;;;;;;85.97;31.05;;;;;;;6.93;100.00;101516.66;4998781;28;20062;-86
2023/01/06 09:17:35;;;;;;;90.95;35.60;;;;;;;6.75;100.00;101517.09;4997643;28;20129;-87
2023/01/06 09:20:04;;;;;;;79.07;30.83;;;;;;;6.96;100.00;101516.44;4997500;28;20066;-85
2023/01/06 09:22:30;;;;;;;108.65;34.17;;;;;;;6.74;100.00;101523.31;4996609;28;20432;-85
2023/01/06 09:24:56;;;;;;;78.35;31.38;;;;;;;7.03;100.00;101518.50;4996309;28;20041;-88
2023/01/06 09:27:22;;;;;;;95.28;32.97;;;;;;;6.99;100.00;101524.13;4996386;28;20040;-87
2023/01/06 09:29:47;;;;;;;100.88;34.47;;;;;;;6.84;100.00;101522.63;4997458;28;20393;-87
2023/01/06 09:32:13;;;;;;;88.57;33.50;;;;;;;6.74;100.00;101527.72;4995388;28;20038;-85
2023/01/06 09:34:39;;;;;;;88.97;33.47;;;;;;;6.74;100.00;101533.84;5000779;28;20106;-87
2023/01/06 09:37:04;;;;;;;92.60;33.80;;;;;;;6.76;100.00;101537.19;5002848;28;20026;-88
2023/01/06 09:39:30;;;;;;;99.88;36.97;;;;;;;6.80;100.00;101531.69;5002873;28;20038;-82
2023/01/06 09:42:31;;;;;;;85.20;33.65;;;;;;;6.81;100.00;101543.91;5004608;28;20042;-85
2023/01/06 09:45:05;;;;;;;98.18;35.45;;;;;;;6.79;100.00;101541.41;5002625;28;20037;-86
2023/01/06 09:47:41;;;;;;;113.45;40.88;;;;;;;6.81;100.00;101539.50;4995049;28;20036;-82
2023/01/06 09:50:24;;;;;;;124.13;44.67;;;;;;;6.90;100.00;101537.97;4993153;28;20034;-86
2023/01/06 09:52:59;;;;;;;123.00;43.20;;;;;;;6.90;100.00;101543.22;4988304;28;20039;-87
2023/01/06 09:55:35;;;;;;;98.15;36.28;;;;;;;7.05;100.00;101548.22;4978578;28;20034;-86
2023/01/06 09:58:27;;;;;;;103.25;35.47;;;;;;;6.97;100.00;101544.47;4993927;28;20493;-88
2023/01/06 10:00:55;;;;;;;102.57;34.90;;;;;;;7.00;100.00;101538.97;4983190;28;20508;-85
2023/01/06 10:03:23;;;;;;;101.57;36.13;;;;;;;6.91;100.00;101547.56;5003702;28;20125;-85
2023/01/06 10:05:55;;;;;;;92.60;34.95;;;;;;;7.07;100.00;101545.47;4967872;28;20042;-84
2023/01/06 10:08:27;;;;;;;99.35;35.00;;;;;;;7.19;100.00;101536.66;4991067;28;20088;-84
2023/01/06 10:11:18;;;;;;;102.32;37.22;;;;;;;7.28;100.00;101538.59;4990035;28;20034;-86
2023/01/06 10:13:55;;;;;;;92.07;36.00;;;;;;;7.37;100.00;101537.88;4988325;28;20035;-86
2023/01/06 10:16:38;;;;;;;109.72;37.22;;;;;;;7.31;100.00;101541.00;4990159;28;20074;-85
2023/01/06 10:19:10;;;;;;;81.47;28.53;;;;;;;7.31;100.00;101537.50;4989710;28;20042;-87
2023/01/06 10:21:45;;;;;;;98.57;36.85;;;;;;;7.20;100.00;101540.94;4989750;28;20049;-87
2023/01/06 10:24:33;;;;;;;102.68;37.60;;;;;;;7.38;100.00;101536.94;4989880;28;20038;-85
2023/01/06 10:27:09;;;;;;;107.47;38.15;;;;;;;7.44;100.00;101535.63;4996016;28;20050;-87
2023/01/06 10:29:37;;;;;;;102.50;38.00;;;;;;;7.46;100.00;101536.34;4995737;28;20058;-85
2023/01/06 10:32:05;;;;;;;103.82;37.85;;;;;;;7.65;100.00;101532.19;4995704;28;20042;-84
2023/01/06 10:34:33;;;;;;;96.45;36.35;;;;;;;7.65;100.00;101537.47;4993371;28;20046;-85
2023/01/06 10:37:10;;;;;;;107.05;37.05;;;;;;;7.61;100.00;101533.38;4989887;28;20039;-85
2023/01/06 10:39:41;;;;;;;103.05;37.80;;;;;;;7.82;100.00;101526.41;4991169;28;20042;-86
2023/01/06 10:42:57;;;;;;;105.13;39.97;;;;;;;7.74;100.00;101520.91;4988693;28;20057;-83
2023/01/06 10:45:43;;;;;;;104.70;39.83;;;;;;;7.96;100.00;101513.94;4990101;28;20490;-86
2023/01/06 10:48:14;;;;;;;104.05;37.85;;;;;;;7.94;100.00;101510.59;4990785;28;20045;-87
2023/01/06 10:50:41;;;;;;;97.88;38.13;;;;;;;8.27;100.00;101505.25;4991276;28;20110;-85
2023/01/06 10:53:08;;;;;;;98.35;37.85;;;;;;;8.08;100.00;101512.97;4989500;28;20062;-86
2023/01/06 10:55:45;;;;;;;96.30;38.85;;;;;;;8.00;100.00;101502.19;4990899;28;20023;-84
2023/01/06 10:58:21;;;;;;;107.00;39.40;;;;;;;7.95;100.00;101494.66;4993573;28;20040;-86
2023/01/06 11:01:14;;;;;;;92.47;38.83;;;;;;;8.08;100.00;101491.88;4992871;28;20033;-85
2023/01/06 11:03:44;;;;;;;103.07;39.22;;;;;;;8.19;100.00;101484.75;4989365;28;20050;-83
2023/01/06 11:06:30;;;;;;;101.15;39.97;;;;;;;8.23;100.00;101483.53;4990613;28;20038;-86
2023/01/06 11:08:57;;;;;;;105.95;42.65;;;;;;;8.28;100.00;101476.13;4989381;28;20070;-86
2023/01/06 11:11:23;;;;;;;113.22;46.80;;;;;;;8.41;100.00;101477.78;4988810;28;20030;-87
2023/01/06 11:13:54;;;;;;;118.68;46.15;;;;;;;8.49;100.00;101473.53;4989722;28;20391;-85
2023/01/06 11:16:31;;;;;;;125.13;49.60;;;;;;;8.43;100.00;101476.69;4990500;28;20429;-85
2023/01/06 11:19:05;;;;;;;110.20;45.50;;;;;;;8.46;100.00;101476.44;4990666;28;20038;-86
2023/01/06 11:21:43;;;;;;;114.45;48.83;;;;;;;8.38;100.00;101476.22;4991090;28;20039;-84
2023/01/06 11:24:35;;;;;;;116.90;45.85;;;;;;;8.50;100.00;101469.09;4994163;28;20070;-85